createdAt,value
2023-03-29T00:00:31.403Z,41.67
2023-03-29T00:03:35.013Z,41.64
2023-03-29T00:06:38.275Z,41.47
2023-03-29T00:09:42.583Z,41.41
2023-03-29T00:12:45.501Z,41.54
2023-03-29T00:15:48.389Z,41.45
2023-03-29T00:18:51.318Z,41.27
2023-03-29T00:21:54.352Z,41.24
2023-03-29T00:24:58.582Z,41.35
2023-03-29T00:28:01.549Z,41.39
2023-03-29T00:31:07.228Z,41.40
2023-03-29T00:34:10.469Z,41.44
2023-03-29T00:37:14.864Z,41.53
2023-03-29T00:40:19.806Z,41.49
2023-03-29T00:43:22.728Z,41.51
2023-03-29T00:46:27.198Z,41.42
2023-03-29T00:49:30.561Z,41.56
2023-03-29T00:52:35.661Z,41.49
2023-03-29T00:55:44.529Z,41.53
2023-03-29T00:58:53.090Z,41.52
2023-03-29T01:02:02.033Z,41.44
2023-03-29T01:05:08.479Z,41.42
2023-03-29T01:08:18.065Z,41.42
2023-03-29T01:11:28.478Z,41.47
2023-03-29T01:14:37.088Z,41.40
2023-03-29T01:17:43.226Z,41.49
2023-03-29T01:21:03.326Z,41.45
2023-03-29T01:24:26.529Z,41.45
2023-03-29T01:27:47.208Z,41.52
2023-03-29T01:30:54.553Z,41.45
2023-03-29T01:34:04.622Z,41.54
2023-03-29T01:37:13.454Z,41.40
2023-03-29T01:40:16.677Z,41.44
2023-03-29T01:43:29.145Z,41.32
2023-03-29T01:46:38.668Z,41.48
2023-03-29T01:49:45.978Z,41.50
2023-03-29T01:52:54.382Z,41.50
2023-03-29T01:56:01.524Z,41.52
2023-03-29T01:59:11.607Z,41.41
2023-03-29T02:02:17.452Z,41.52
2023-03-29T02:05:24.443Z,41.50
2023-03-29T02:08:28.574Z,41.42
2023-03-29T02:11:34.624Z,41.41
2023-03-29T02:14:39.647Z,41.53
2023-03-29T02:17:44.812Z,41.53
2023-03-29T02:20:51.594Z,41.45
2023-03-29T02:23:58.883Z,41.33
2023-03-29T02:27:02.381Z,41.39
2023-03-29T02:30:08.686Z,41.44
2023-03-29T02:33:15.697Z,41.42
2023-03-29T02:36:22.485Z,41.41
2023-03-29T02:39:27.735Z,41.40
2023-03-29T02:42:32.339Z,41.48
2023-03-29T02:45:38.258Z,41.41
2023-03-29T02:48:42.433Z,41.35
2023-03-29T02:51:48.367Z,41.38
2023-03-29T02:54:54.372Z,41.45
2023-03-29T02:57:57.366Z,41.41
2023-03-29T03:01:03.421Z,41.44
2023-03-29T03:04:06.787Z,41.42
2023-03-29T03:07:09.748Z,41.41
2023-03-29T03:10:12.884Z,41.35
2023-03-29T03:13:15.842Z,41.32
2023-03-29T03:16:20.234Z,41.39
2023-03-29T03:19:24.167Z,41.28
2023-03-29T03:22:27.094Z,41.30
2023-03-29T03:25:30.678Z,41.32
2023-03-29T03:28:33.578Z,41.31
2023-03-29T03:31:41.213Z,41.18
2023-03-29T03:34:52.254Z,41.18
2023-03-29T03:37:58.848Z,41.15
2023-03-29T03:41:03.655Z,41.17
2023-03-29T03:44:09.403Z,41.18
2023-03-29T03:47:14.749Z,41.12
2023-03-29T03:50:19.231Z,41.27
2023-03-29T03:53:22.531Z,41.19
2023-03-29T03:56:44.529Z,41.21
2023-03-29T03:59:54.277Z,41.21
2023-03-29T04:03:06.069Z,41.12
2023-03-29T04:06:11.124Z,41.17
2023-03-29T04:09:43.487Z,41.26
2023-03-29T04:13:02.368Z,41.18
2023-03-29T04:16:07.215Z,41.26
2023-03-29T04:19:12.158Z,41.22
2023-03-29T04:22:15.484Z,41.23
2023-03-29T04:25:19.997Z,41.22
2023-03-29T04:28:22.900Z,41.15
2023-03-29T04:31:41.905Z,41.15
2023-03-29T04:34:57.546Z,41.26
2023-03-29T04:38:00.528Z,41.26
2023-03-29T04:41:05.308Z,41.31
2023-03-29T04:44:35.078Z,41.30
2023-03-29T04:47:42.107Z,41.36
2023-03-29T04:50:54.423Z,41.17
2023-03-29T04:53:57.727Z,41.28
2023-03-29T04:57:00.749Z,41.36
2023-03-29T05:00:27.206Z,41.29
2023-03-29T05:03:48.872Z,41.30
2023-03-29T05:07:03.043Z,41.35
2023-03-29T05:10:08.304Z,41.37
2023-03-29T05:13:11.304Z,41.28
2023-03-29T05:16:16.986Z,41.39
2023-03-29T05:19:21.829Z,41.43
2023-03-29T05:22:26.571Z,41.49
2023-03-29T05:25:29.578Z,41.40
2023-03-29T05:28:34.534Z,41.38
2023-03-29T05:31:39.143Z,41.56
2023-03-29T05:34:42.170Z,41.48
2023-03-29T05:37:48.112Z,41.47
2023-03-29T05:40:51.273Z,41.47
2023-03-29T05:44:23.271Z,41.51
2023-03-29T05:47:31.721Z,41.46
2023-03-29T05:50:34.640Z,41.47
2023-03-29T05:53:39.186Z,41.49
2023-03-29T05:56:42.569Z,41.65
2023-03-29T05:59:45.708Z,41.57
2023-03-29T06:02:51.185Z,41.48
2023-03-29T06:06:00.508Z,41.61
2023-03-29T06:09:05.654Z,41.54
2023-03-29T06:12:21.862Z,41.63
2023-03-29T06:15:34.885Z,41.64
2023-03-29T06:18:41.610Z,41.66
2023-03-29T06:21:44.533Z,41.66
2023-03-29T06:24:52.601Z,41.60
2023-03-29T06:28:06.052Z,41.68
2023-03-29T06:31:10.445Z,41.61
2023-03-29T06:34:16.489Z,41.64
2023-03-29T06:37:41.617Z,41.67
2023-03-29T06:41:04.006Z,41.70
2023-03-29T06:44:20.756Z,41.71
2023-03-29T06:47:34.992Z,42.01
2023-03-29T06:50:38.244Z,42.39
2023-03-29T06:53:46.556Z,42.34
2023-03-29T06:56:51.577Z,41.50
2023-03-29T06:59:57.478Z,41.61
2023-03-29T07:03:14.817Z,41.61
2023-03-29T07:06:20.407Z,40.36
2023-03-29T07:09:26.181Z,40.10
2023-03-29T07:12:51.579Z,39.73
2023-03-29T07:15:54.608Z,39.30
2023-03-29T07:19:13.353Z,39.12
2023-03-29T07:22:31.328Z,39.12
2023-03-29T07:25:38.282Z,38.48
2023-03-29T07:28:43.197Z,37.48
2023-03-29T07:31:46.169Z,37.58
2023-03-29T07:35:13.556Z,37.77
2023-03-29T07:38:16.657Z,37.94
2023-03-29T07:41:24.890Z,38.09
2023-03-29T07:44:37.468Z,37.98
2023-03-29T07:47:40.663Z,38.03
2023-03-29T07:50:44.294Z,38.03
2023-03-29T07:53:47.488Z,37.93
2023-03-29T07:57:08.915Z,38.14
2023-03-29T08:00:20.109Z,38.22
2023-03-29T08:03:38.725Z,38.22
2023-03-29T08:06:43.478Z,38.45
2023-03-29T08:09:46.943Z,38.65
2023-03-29T08:12:52.380Z,38.68
2023-03-29T08:16:03.517Z,38.74
2023-03-29T08:19:11.282Z,38.85
2023-03-29T08:22:27.972Z,38.92
2023-03-29T08:26:08.606Z,38.96
2023-03-29T08:29:12.003Z,39.13
2023-03-29T08:32:16.495Z,39.20
2023-03-29T08:35:19.908Z,39.39
2023-03-29T08:38:35.490Z,37.71
2023-03-29T08:41:52.281Z,36.29
2023-03-29T08:45:07.930Z,36.34
2023-03-29T08:48:23.598Z,36.46
2023-03-29T08:51:31.385Z,36.78
2023-03-29T08:54:38.141Z,36.47
2023-03-29T08:57:49.876Z,36.61
2023-03-29T09:01:08.611Z,36.82
2023-03-29T09:04:28.073Z,37.09
2023-03-29T09:07:38.696Z,37.09
2023-03-29T09:10:47.730Z,37.28
2023-03-29T09:14:01.082Z,37.36
2023-03-29T09:17:15.199Z,37.55
2023-03-29T09:20:31.385Z,37.54
2023-03-29T09:24:11.606Z,37.79
2023-03-29T09:27:26.699Z,38.02
2023-03-29T09:30:41.550Z,38.20
2023-03-29T09:33:50.530Z,38.39
2023-03-29T09:37:04.043Z,38.58
2023-03-29T09:40:13.501Z,38.72
2023-03-29T09:43:53.397Z,38.85
2023-03-29T09:47:04.600Z,38.93
2023-03-29T09:50:27.724Z,38.89
2023-03-29T09:53:35.083Z,38.92
2023-03-29T09:56:52.608Z,39.00
2023-03-29T09:59:57.437Z,39.16
2023-03-29T10:03:00.728Z,39.21
2023-03-29T10:06:25.550Z,39.37
2023-03-29T10:09:35.049Z,39.44
2023-03-29T10:12:53.206Z,39.63
2023-03-29T10:16:03.531Z,39.73
2023-03-29T10:19:27.913Z,39.80
2023-03-29T10:22:34.680Z,39.83
2023-03-29T10:25:42.880Z,39.92
2023-03-29T10:28:46.287Z,39.93
2023-03-29T10:31:49.973Z,40.00
2023-03-29T10:34:54.044Z,39.98
2023-03-29T10:37:59.238Z,40.02
2023-03-29T10:41:10.257Z,40.01
2023-03-29T10:44:29.754Z,40.00
2023-03-29T10:47:35.231Z,39.99
2023-03-29T10:50:38.317Z,40.01
2023-03-29T10:53:41.598Z,40.08
2023-03-29T10:56:52.451Z,40.16
2023-03-29T11:00:02.461Z,40.09
2023-03-29T11:03:41.329Z,40.17
2023-03-29T11:06:51.350Z,40.19
2023-03-29T11:10:05.094Z,40.13
2023-03-29T11:13:18.395Z,40.23
2023-03-29T11:16:33.091Z,40.30
2023-03-29T11:20:05.423Z,40.21
2023-03-29T11:23:29.020Z,40.28
2023-03-29T11:26:41.976Z,40.34
2023-03-29T11:29:58.833Z,40.39
2023-03-29T11:33:14.794Z,40.42
2023-03-29T11:36:26.367Z,40.45
2023-03-29T11:39:39.444Z,40.55
2023-03-29T11:42:47.750Z,40.29
2023-03-29T11:45:56.849Z,40.52
2023-03-29T11:49:04.947Z,40.54
2023-03-29T11:52:15.305Z,40.59
2023-03-29T11:55:22.638Z,40.71
2023-03-29T11:58:31.187Z,40.81
2023-03-29T12:01:40.681Z,40.80
2023-03-29T12:04:49.599Z,40.83
2023-03-29T12:07:57.025Z,40.85
2023-03-29T12:11:07.432Z,40.96
2023-03-29T12:14:15.336Z,41.07
2023-03-29T12:17:25.315Z,40.92
2023-03-29T12:20:31.747Z,41.07
2023-03-29T12:23:36.702Z,41.01
2023-03-29T12:27:02.933Z,41.13
2023-03-29T12:30:27.354Z,41.20
2023-03-29T12:34:11.648Z,41.15
2023-03-29T12:37:47.019Z,41.20
2023-03-29T12:41:17.368Z,41.20
2023-03-29T12:44:59.443Z,41.21
2023-03-29T12:48:14.584Z,41.21
2023-03-29T12:51:21.096Z,41.30
2023-03-29T12:54:29.288Z,41.44
2023-03-29T12:57:42.098Z,41.33
2023-03-29T13:00:46.528Z,41.39
2023-03-29T13:03:52.002Z,41.47
2023-03-29T13:07:03.942Z,41.47
2023-03-29T13:10:11.617Z,41.35
2023-03-29T13:13:22.535Z,41.48
2023-03-29T13:16:32.133Z,41.53
2023-03-29T13:19:40.966Z,41.52
2023-03-29T13:22:54.988Z,41.53
2023-03-29T13:26:17.424Z,41.55
2023-03-29T13:29:52.564Z,41.52
2023-03-29T13:33:09.700Z,41.55
2023-03-29T13:36:22.540Z,41.55
2023-03-29T13:39:30.532Z,41.66
2023-03-29T13:42:41.892Z,41.73
2023-03-29T13:45:44.778Z,41.82
2023-03-29T13:48:56.117Z,41.77
2023-03-29T13:52:20.788Z,41.82
2023-03-29T13:55:30.893Z,41.74
2023-03-29T13:58:42.775Z,41.91
2023-03-29T14:01:51.638Z,41.80
2023-03-29T14:04:55.918Z,41.80
2023-03-29T14:08:06.378Z,41.86
2023-03-29T14:11:21.109Z,41.91
2023-03-29T14:14:28.169Z,41.94
2023-03-29T14:17:31.633Z,41.90
2023-03-29T14:20:34.910Z,42.03
2023-03-29T14:23:42.007Z,42.02
2023-03-29T14:26:47.742Z,42.06
2023-03-29T14:29:53.257Z,42.06
2023-03-29T14:32:56.878Z,42.03
2023-03-29T14:36:02.326Z,42.04
2023-03-29T14:39:09.345Z,42.00
2023-03-29T14:42:20.706Z,41.96
2023-03-29T14:45:25.299Z,41.95
2023-03-29T14:48:28.572Z,41.92
2023-03-29T14:51:31.722Z,42.01
2023-03-29T14:54:36.170Z,41.86
2023-03-29T14:57:39.466Z,41.92
2023-03-29T15:00:43.917Z,41.97
2023-03-29T15:03:54.830Z,42.06
2023-03-29T15:06:59.698Z,42.02
2023-03-29T15:10:05.076Z,42.21
2023-03-29T15:13:09.703Z,42.20
2023-03-29T15:16:16.831Z,41.96
2023-03-29T15:19:22.349Z,42.14
2023-03-29T15:22:25.278Z,42.22
2023-03-29T15:25:29.503Z,41.19
2023-03-29T15:28:34.720Z,40.73
2023-03-29T15:31:41.622Z,40.53
2023-03-29T15:34:46.026Z,40.63
2023-03-29T15:37:49.324Z,40.82
2023-03-29T15:40:52.232Z,40.96
2023-03-29T15:43:55.641Z,41.14
2023-03-29T15:47:00.384Z,41.16
2023-03-29T15:50:03.304Z,41.40
2023-03-29T15:53:14.734Z,41.38
2023-03-29T15:56:22.910Z,41.47
2023-03-29T15:59:26.158Z,41.50
2023-03-29T16:02:31.016Z,41.52
2023-03-29T16:05:34.083Z,41.69
2023-03-29T16:08:37.062Z,41.75
2023-03-29T16:11:40.541Z,41.70
2023-03-29T16:14:43.510Z,41.79
2023-03-29T16:17:47.855Z,41.77
2023-03-29T16:20:50.890Z,41.84
2023-03-29T16:23:53.881Z,41.95
2023-03-29T16:26:58.501Z,41.84
2023-03-29T16:30:01.468Z,41.87
2023-03-29T16:33:08.193Z,42.00
2023-03-29T16:36:12.113Z,42.10
2023-03-29T16:39:15.871Z,42.14
2023-03-29T16:42:18.773Z,42.04
2023-03-29T16:45:21.728Z,42.17
2023-03-29T16:48:27.087Z,41.98
2023-03-29T16:51:30.074Z,42.07
2023-03-29T16:54:33.496Z,42.21
2023-03-29T16:57:36.889Z,42.17
2023-03-29T17:00:40.914Z,42.09
2023-03-29T17:03:45.449Z,42.11
2023-03-29T17:06:48.635Z,42.09
2023-03-29T17:09:51.762Z,42.14
2023-03-29T17:12:54.661Z,42.14
2023-03-29T17:15:58.171Z,42.10
2023-03-29T17:19:02.495Z,42.18
2023-03-29T17:22:05.646Z,42.22
2023-03-29T17:25:09.800Z,42.25
2023-03-29T17:28:12.863Z,42.30
2023-03-29T17:31:16.099Z,42.35
2023-03-29T17:34:20.612Z,42.31
2023-03-29T17:37:23.953Z,42.45
2023-03-29T17:40:27.162Z,42.41
2023-03-29T17:43:30.092Z,42.40
2023-03-29T17:46:33.033Z,42.40
2023-03-29T17:49:37.553Z,42.47
2023-03-29T17:52:41.257Z,42.49
2023-03-29T17:55:44.196Z,42.51
2023-03-29T17:58:48.982Z,42.59
2023-03-29T18:01:51.981Z,42.60
2023-03-29T18:04:56.304Z,42.48
2023-03-29T18:07:59.226Z,42.68
2023-03-29T18:11:08.792Z,42.74
2023-03-29T18:14:11.641Z,42.81
2023-03-29T18:17:14.568Z,42.95
2023-03-29T18:20:20.456Z,42.98
2023-03-29T18:23:23.523Z,42.95
2023-03-29T18:26:26.492Z,42.94
2023-03-29T18:29:29.482Z,42.94
2023-03-29T18:32:32.390Z,42.94
2023-03-29T18:35:37.000Z,42.88
2023-03-29T18:38:40.471Z,42.86
2023-03-29T18:41:43.506Z,42.84
2023-03-29T18:44:46.377Z,42.95
2023-03-29T18:47:50.841Z,42.91
2023-03-29T18:50:57.152Z,42.97
2023-03-29T18:54:00.120Z,42.99
2023-03-29T18:57:03.187Z,42.97
2023-03-29T19:00:11.914Z,42.99
2023-03-29T19:03:14.938Z,42.98
2023-03-29T19:06:19.447Z,43.02
2023-03-29T19:09:22.453Z,42.99
2023-03-29T19:12:25.582Z,43.20
2023-03-29T19:15:28.578Z,43.04
2023-03-29T19:18:31.532Z,43.04
2023-03-29T19:21:35.913Z,43.05
2023-03-29T19:24:38.939Z,43.08
2023-03-29T19:27:41.887Z,43.04
2023-03-29T19:30:44.918Z,43.13
2023-03-29T19:33:48.016Z,43.14
2023-03-29T19:36:53.506Z,43.10
2023-03-29T19:39:57.088Z,43.15
2023-03-29T19:43:00.236Z,43.17
2023-03-29T19:46:08.376Z,43.12
2023-03-29T19:49:13.498Z,43.21
2023-03-29T19:52:17.847Z,43.21
2023-03-29T19:55:20.802Z,43.23
2023-03-29T19:58:23.727Z,43.23
2023-03-29T20:01:27.201Z,43.21
2023-03-29T20:04:33.298Z,43.17
2023-03-29T20:07:37.784Z,43.16
2023-03-29T20:10:40.709Z,43.35
2023-03-29T20:13:45.037Z,43.27
2023-03-29T20:16:49.683Z,43.32
2023-03-29T20:19:53.940Z,43.40
2023-03-29T20:23:04.417Z,43.24
2023-03-29T20:26:08.441Z,43.22
2023-03-29T20:29:11.469Z,43.22
2023-03-29T20:32:14.486Z,43.31
2023-03-29T20:35:17.589Z,43.30
2023-03-29T20:38:21.964Z,43.21
2023-03-29T20:41:25.111Z,43.31
2023-03-29T20:44:28.617Z,43.34
2023-03-29T20:47:31.500Z,43.38
2023-03-29T20:50:34.547Z,43.40
2023-03-29T20:53:42.959Z,43.30
2023-03-29T20:56:45.940Z,43.36
2023-03-29T20:59:50.239Z,43.31
2023-03-29T21:02:55.308Z,42.94
2023-03-29T21:06:02.196Z,43.06
2023-03-29T21:09:06.590Z,43.08
2023-03-29T21:12:09.541Z,43.22
2023-03-29T21:15:13.432Z,43.16
2023-03-29T21:18:16.638Z,43.15
2023-03-29T21:21:19.621Z,43.18
2023-03-29T21:24:23.922Z,43.17
2023-03-29T21:27:26.802Z,43.13
2023-03-29T21:30:31.998Z,43.19
2023-03-29T21:33:35.820Z,43.17
2023-03-29T21:36:39.760Z,43.14
2023-03-29T21:39:44.027Z,43.14
2023-03-29T21:42:46.913Z,43.31
2023-03-29T21:45:50.441Z,43.26
2023-03-29T21:48:53.389Z,43.34
2023-03-29T21:51:56.872Z,43.41
2023-03-29T21:55:01.189Z,43.38
2023-03-29T21:58:04.673Z,43.35
2023-03-29T22:01:10.093Z,43.39
2023-03-29T22:04:19.805Z,43.50
2023-03-29T22:07:28.715Z,43.48
2023-03-29T22:10:33.066Z,43.49
2023-03-29T22:13:36.020Z,43.52
2023-03-29T22:16:39.005Z,43.55
2023-03-29T22:19:42.057Z,43.57
2023-03-29T22:22:49.731Z,43.57
2023-03-29T22:25:54.007Z,43.37
2023-03-29T22:28:57.857Z,43.48
2023-03-29T22:32:00.725Z,43.37
2023-03-29T22:35:04.143Z,43.29
2023-03-29T22:38:07.028Z,43.31
2023-03-29T22:41:11.758Z,43.32
2023-03-29T22:44:14.663Z,43.28
2023-03-29T22:47:17.611Z,43.30
2023-03-29T22:50:20.551Z,43.35
2023-03-29T22:53:23.573Z,43.29
2023-03-29T22:56:27.959Z,43.36
2023-03-29T22:59:30.957Z,43.36
2023-03-29T23:02:33.915Z,43.21
2023-03-29T23:05:36.903Z,43.33
2023-03-29T23:08:39.834Z,43.33
2023-03-29T23:11:44.127Z,43.32
2023-03-29T23:14:47.049Z,43.29
2023-03-29T23:17:49.983Z,43.25
2023-03-29T23:20:55.656Z,43.21
2023-03-29T23:23:58.568Z,43.22
2023-03-29T23:27:03.027Z,43.33
2023-03-29T23:30:08.847Z,43.20
2023-03-29T23:33:11.817Z,43.32
2023-03-29T23:36:16.918Z,43.33
2023-03-29T23:39:19.785Z,43.36
2023-03-29T23:42:24.025Z,43.34
2023-03-29T23:45:28.480Z,43.31
2023-03-29T23:48:32.306Z,43.44
2023-03-29T23:51:36.745Z,43.43
2023-03-29T23:54:39.686Z,43.35
2023-03-29T23:57:44.336Z,43.47
